createdAt,value
2023-05-13T00:01:29.707Z,12.36
2023-05-13T00:03:59.546Z,12.33
2023-05-13T00:06:41.206Z,12.20
2023-05-13T00:09:11.401Z,12.13
2023-05-13T00:11:41.014Z,12.22
2023-05-13T00:14:16.854Z,12.37
2023-05-13T00:16:51.329Z,12.42
2023-05-13T00:21:58.293Z,12.48
2023-05-13T00:24:27.816Z,12.58
2023-05-13T00:26:57.631Z,12.54
2023-05-13T00:29:27.127Z,12.41
2023-05-13T00:31:56.484Z,12.28
2023-05-13T00:34:31.231Z,12.17
2023-05-13T00:37:02.594Z,12.22
2023-05-13T00:39:32.327Z,12.28
2023-05-13T00:42:04.094Z,12.41
2023-05-13T00:44:40.547Z,12.43
2023-05-13T00:47:10.455Z,12.42
2023-05-13T00:49:45.750Z,12.39
2023-05-13T00:52:17.139Z,12.35
2023-05-13T00:54:51.534Z,12.29
2023-05-13T00:57:21.017Z,12.24
2023-05-13T00:59:50.327Z,12.13
2023-05-13T01:02:36.610Z,12.16
2023-05-13T01:05:19.677Z,12.11
2023-05-13T01:08:20.017Z,12.12
2023-05-13T01:10:57.264Z,12.01
2023-05-13T01:16:20.552Z,12.17
2023-05-13T01:18:58.985Z,12.30
2023-05-13T01:21:31.047Z,12.32
2023-05-13T01:24:00.874Z,12.24
2023-05-13T01:26:30.390Z,12.22
2023-05-13T01:29:00.766Z,12.15
2023-05-13T01:31:31.856Z,12.22
2023-05-13T01:36:44.807Z,12.29
2023-05-13T01:39:15.425Z,12.31
2023-05-13T01:41:44.848Z,12.27
2023-05-13T01:44:19.277Z,12.13
2023-05-13T01:46:50.083Z,12.16
2023-05-13T01:49:38.157Z,12.12
2023-05-13T01:52:11.615Z,11.99
2023-05-13T01:54:47.218Z,11.89
2023-05-13T01:57:17.758Z,11.92
2023-05-13T01:59:47.485Z,11.99
2023-05-13T02:02:17.342Z,11.93
2023-05-13T02:04:51.789Z,11.98
2023-05-13T02:07:23.438Z,12.03
2023-05-13T02:10:04.305Z,12.00
2023-05-13T02:12:41.632Z,12.00
2023-05-13T02:15:12.702Z,11.96
2023-05-13T02:17:44.157Z,11.91
2023-05-13T02:20:19.066Z,11.87
2023-05-13T02:22:50.509Z,11.82
2023-05-13T02:25:25.591Z,11.77
2023-05-13T02:27:55.030Z,11.64
2023-05-13T02:30:31.691Z,11.59
2023-05-13T02:33:01.553Z,11.66
2023-05-13T02:35:31.587Z,11.68
2023-05-13T02:38:07.906Z,11.74
2023-05-13T02:40:37.344Z,11.74
2023-05-13T02:43:06.873Z,11.83
2023-05-13T02:45:58.052Z,11.88
2023-05-13T02:48:27.497Z,11.84
2023-05-13T02:50:56.935Z,11.87
2023-05-13T02:53:29.565Z,11.89
2023-05-13T02:56:09.129Z,12.02
2023-05-13T02:58:39.816Z,12.12
2023-05-13T03:01:09.264Z,12.19
2023-05-13T03:03:38.754Z,12.19
2023-05-13T03:06:09.170Z,12.24
2023-05-13T03:08:40.477Z,12.27
2023-05-13T03:11:15.039Z,12.30
2023-05-13T03:13:44.487Z,12.33
2023-05-13T03:16:16.891Z,12.29
2023-05-13T03:18:46.696Z,12.32
2023-05-13T03:21:16.070Z,12.43
2023-05-13T03:23:59.031Z,12.45
2023-05-13T03:26:28.658Z,12.50
2023-05-13T03:28:58.323Z,12.56
2023-05-13T03:31:38.022Z,12.63
2023-05-13T03:34:13.244Z,12.72
2023-05-13T03:36:42.818Z,12.80
2023-05-13T03:39:15.954Z,13.06
2023-05-13T03:41:46.025Z,13.26
2023-05-13T03:44:16.018Z,13.45
2023-05-13T03:46:52.278Z,13.64
2023-05-13T03:49:22.149Z,13.73
2023-05-13T03:51:51.767Z,13.72
2023-05-13T03:54:23.704Z,13.87
2023-05-13T03:56:52.601Z,14.01
2023-05-13T03:59:21.840Z,14.01
2023-05-13T04:01:51.418Z,14.19
2023-05-13T04:04:20.743Z,14.25
2023-05-13T04:06:49.992Z,14.38
2023-05-13T04:09:19.948Z,14.44
2023-05-13T04:11:56.894Z,14.53
2023-05-13T04:14:26.335Z,14.44
2023-05-13T04:16:55.744Z,14.59
2023-05-13T04:19:26.718Z,14.65
2023-05-13T04:21:56.144Z,14.70
2023-05-13T04:24:26.096Z,14.77
2023-05-13T04:26:58.934Z,14.91
2023-05-13T04:29:29.722Z,15.23
2023-05-13T04:31:59.309Z,15.32
2023-05-13T04:34:28.955Z,15.42
2023-05-13T04:36:58.387Z,15.53
2023-05-13T04:39:27.833Z,15.61
2023-05-13T04:42:00.893Z,15.72
2023-05-13T04:44:35.606Z,15.89
2023-05-13T04:47:05.140Z,15.88
2023-05-13T04:52:16.387Z,15.81
2023-05-13T04:54:45.994Z,15.71
2023-05-13T04:57:17.372Z,15.67
2023-05-13T04:59:46.801Z,15.78
2023-05-13T05:02:17.418Z,15.80
2023-05-13T05:04:48.892Z,15.83
2023-05-13T05:07:23.427Z,15.89
2023-05-13T05:09:53.990Z,15.91
2023-05-13T05:12:26.007Z,15.96
2023-05-13T05:14:55.333Z,15.98
2023-05-13T05:17:24.919Z,16.04
2023-05-13T05:19:59.722Z,16.10
2023-05-13T05:22:29.316Z,16.00
2023-05-13T05:24:59.356Z,16.22
2023-05-13T05:27:40.886Z,16.29
2023-05-13T05:30:12.164Z,16.37
2023-05-13T05:32:42.893Z,16.40
2023-05-13T05:35:13.122Z,16.40
2023-05-13T05:37:42.622Z,16.50
2023-05-13T05:40:12.995Z,16.59
2023-05-13T05:42:44.608Z,16.73
2023-05-13T05:45:14.184Z,16.79
2023-05-13T05:47:44.850Z,16.84
2023-05-13T05:50:20.675Z,16.93
2023-05-13T05:52:50.472Z,16.95
2023-05-13T05:55:19.779Z,17.03
2023-05-13T05:58:07.605Z,17.11
2023-05-13T06:00:39.443Z,17.10
2023-05-13T06:03:08.893Z,17.16
2023-05-13T06:05:38.849Z,17.22
2023-05-13T06:08:08.150Z,17.22
2023-05-13T06:10:38.274Z,17.29
2023-05-13T06:13:09.517Z,17.37
2023-05-13T06:15:39.945Z,17.39
2023-05-13T06:18:09.553Z,17.43
2023-05-13T06:20:39.295Z,17.36
2023-05-13T06:23:08.755Z,17.40
2023-05-13T06:25:43.155Z,17.51
2023-05-13T06:28:15.346Z,17.57
2023-05-13T06:30:45.707Z,17.55
2023-05-13T06:33:20.107Z,17.64
2023-05-13T06:35:49.908Z,17.66
2023-05-13T06:38:21.754Z,17.70
2023-05-13T06:40:53.111Z,17.77
2023-05-13T06:43:30.746Z,17.84
2023-05-13T06:46:02.142Z,17.90
2023-05-13T06:48:36.852Z,17.95
2023-05-13T06:51:07.626Z,18.01
2023-05-13T06:53:48.005Z,18.05
2023-05-13T06:56:17.638Z,18.03
2023-05-13T06:58:49.242Z,18.07
2023-05-13T07:01:18.978Z,18.05
2023-05-13T07:03:48.572Z,18.06
2023-05-13T07:06:18.070Z,18.15
2023-05-13T07:08:47.846Z,18.21
2023-05-13T07:11:17.356Z,18.24
2023-05-13T07:13:48.622Z,18.30
2023-05-13T07:16:19.040Z,18.34
2023-05-13T07:18:48.479Z,18.43
2023-05-13T07:21:17.934Z,18.40
2023-05-13T07:23:54.498Z,18.53
2023-05-13T07:26:28.790Z,18.57
2023-05-13T07:29:01.625Z,18.64
2023-05-13T07:31:36.099Z,18.66
2023-05-13T07:34:05.780Z,18.71
2023-05-13T07:36:35.298Z,18.65
2023-05-13T07:39:04.757Z,18.62
2023-05-13T07:41:40.502Z,18.65
2023-05-13T07:44:12.885Z,18.69
2023-05-13T07:46:42.272Z,18.70
2023-05-13T07:49:16.889Z,18.63
2023-05-13T07:51:46.924Z,18.67
2023-05-13T07:54:16.403Z,18.62
2023-05-13T07:56:47.696Z,18.63
2023-05-13T07:59:24.521Z,18.67
2023-05-13T08:01:53.969Z,18.67
2023-05-13T08:04:23.432Z,18.82
2023-05-13T08:06:53.335Z,18.81
2023-05-13T08:09:22.736Z,18.86
2023-05-13T08:11:52.194Z,18.71
2023-05-13T08:14:22.978Z,18.75
2023-05-13T08:16:54.808Z,19.06
2023-05-13T08:19:24.251Z,19.08
2023-05-13T08:21:53.590Z,19.07
2023-05-13T08:24:28.229Z,19.07
2023-05-13T08:26:57.857Z,19.03
2023-05-13T08:29:27.344Z,19.10
2023-05-13T08:32:04.457Z,19.22
2023-05-13T08:34:39.834Z,19.34
2023-05-13T08:37:09.289Z,19.37
2023-05-13T08:39:38.697Z,19.43
2023-05-13T08:42:12.185Z,19.48
2023-05-13T08:44:45.764Z,19.49
2023-05-13T08:47:26.823Z,19.55
2023-05-13T08:50:01.815Z,19.62
2023-05-13T08:52:31.967Z,19.58
2023-05-13T08:55:02.158Z,19.52
2023-05-13T08:57:33.876Z,19.64
2023-05-13T09:00:03.500Z,19.62
2023-05-13T09:02:37.250Z,19.73
2023-05-13T09:05:12.721Z,19.79
2023-05-13T09:07:42.112Z,19.91
2023-05-13T09:10:12.810Z,19.98
2023-05-13T09:12:49.653Z,19.99
2023-05-13T09:15:21.524Z,20.05
2023-05-13T09:17:55.794Z,20.12
2023-05-13T09:20:26.373Z,20.06
2023-05-13T09:23:00.556Z,20.02
2023-05-13T09:25:30.817Z,20.08
2023-05-13T09:28:01.356Z,19.99
2023-05-13T09:30:32.288Z,19.81
2023-05-13T09:33:11.960Z,19.99
2023-05-13T09:35:44.154Z,19.98
2023-05-13T09:38:23.514Z,20.06
2023-05-13T09:40:54.571Z,19.89
2023-05-13T09:46:06.201Z,19.87
2023-05-13T09:48:45.324Z,19.85
2023-05-13T09:51:17.770Z,19.87
2023-05-13T09:53:49.475Z,19.82
2023-05-13T09:56:23.597Z,19.96
2023-05-13T09:58:56.207Z,20.07
2023-05-13T10:01:29.137Z,20.19
2023-05-13T10:04:01.618Z,20.24
2023-05-13T10:06:33.568Z,20.26
2023-05-13T10:09:03.779Z,20.41
2023-05-13T10:11:37.352Z,20.40
2023-05-13T10:14:13.851Z,20.46
2023-05-13T10:16:43.661Z,20.58
2023-05-13T10:19:20.460Z,20.49
2023-05-13T10:21:51.609Z,20.62
2023-05-13T10:24:22.213Z,20.56
2023-05-13T10:26:54.722Z,20.45
2023-05-13T10:29:25.304Z,20.45
2023-05-13T10:31:56.087Z,20.41
2023-05-13T10:34:33.262Z,20.53
2023-05-13T10:37:16.888Z,20.56
2023-05-13T10:40:13.648Z,20.57
2023-05-13T10:42:44.491Z,20.67
2023-05-13T10:45:14.218Z,20.67
2023-05-13T10:47:43.532Z,20.65
2023-05-13T10:50:32.557Z,20.68
2023-05-13T10:53:04.494Z,20.69
2023-05-13T10:55:43.059Z,20.69
2023-05-13T10:58:13.961Z,20.64
2023-05-13T11:00:45.539Z,20.72
2023-05-13T11:03:15.811Z,20.73
2023-05-13T11:06:04.115Z,20.63
2023-05-13T11:08:40.586Z,20.55
2023-05-13T11:14:11.052Z,20.56
2023-05-13T11:16:40.581Z,20.63
2023-05-13T11:19:21.351Z,20.63
2023-05-13T11:21:55.230Z,20.64
2023-05-13T11:24:28.636Z,20.65
2023-05-13T11:26:59.466Z,20.70
2023-05-13T11:29:34.590Z,20.83
2023-05-13T11:32:10.647Z,20.87
2023-05-13T11:34:40.570Z,20.85
2023-05-13T11:37:17.782Z,20.82
2023-05-13T11:39:47.224Z,20.90
2023-05-13T11:42:16.843Z,20.99
2023-05-13T11:44:48.678Z,21.09
2023-05-13T11:47:28.941Z,21.14
2023-05-13T11:49:58.852Z,21.10
2023-05-13T11:52:30.505Z,21.06
2023-05-13T11:55:00.381Z,21.04
2023-05-13T11:57:32.382Z,21.07
2023-05-13T12:00:04.679Z,21.06
2023-05-13T12:02:41.138Z,21.10
2023-05-13T12:05:16.213Z,21.06
2023-05-13T12:07:47.767Z,21.02
2023-05-13T12:10:17.682Z,21.07
2023-05-13T12:12:48.228Z,21.01
2023-05-13T12:15:25.251Z,21.04
2023-05-13T12:17:55.676Z,21.11
2023-05-13T12:20:26.330Z,21.07
2023-05-13T12:23:01.315Z,20.91
2023-05-13T12:25:45.450Z,21.11
2023-05-13T12:28:21.380Z,21.10
2023-05-13T12:30:56.149Z,21.08
2023-05-13T12:33:27.799Z,21.09
2023-05-13T12:36:18.018Z,21.13
2023-05-13T12:39:00.857Z,21.24
2023-05-13T12:51:36.725Z,21.21
2023-05-13T12:54:06.542Z,21.13
2023-05-13T12:56:36.226Z,21.26
2023-05-13T12:59:11.242Z,21.25
2023-05-13T13:01:41.831Z,21.23
2023-05-13T13:04:11.322Z,21.31
2023-05-13T13:06:42.796Z,21.35
2023-05-13T13:09:12.240Z,21.43
2023-05-13T13:11:41.741Z,21.52
2023-05-13T13:16:53.645Z,21.50
2023-05-13T13:19:23.291Z,21.57
2023-05-13T13:21:54.797Z,21.52
2023-05-13T13:24:23.908Z,21.64
2023-05-13T13:26:53.807Z,21.67
2023-05-13T13:29:28.554Z,21.74
2023-05-13T13:31:57.976Z,21.71
2023-05-13T13:34:32.798Z,21.79
2023-05-13T13:37:04.248Z,21.76
2023-05-13T13:39:38.958Z,21.69
2023-05-13T13:42:08.446Z,21.56
2023-05-13T13:44:39.204Z,21.58
2023-05-13T13:47:08.800Z,21.64
2023-05-13T13:49:38.163Z,21.67
2023-05-13T13:52:10.759Z,21.73
2023-05-13T13:54:40.221Z,21.70
2023-05-13T13:57:09.522Z,21.81
2023-05-13T13:59:38.803Z,21.92
2023-05-13T14:02:09.195Z,22.00
2023-05-13T14:04:39.318Z,22.02
2023-05-13T14:07:10.604Z,21.97
2023-05-13T14:09:39.742Z,22.08
2023-05-13T14:12:09.171Z,22.06
2023-05-13T14:14:38.575Z,22.05
2023-05-13T14:17:08.208Z,22.02
2023-05-13T14:19:39.932Z,21.99
2023-05-13T14:22:11.647Z,21.88
2023-05-13T14:24:41.063Z,21.77
2023-05-13T14:27:10.240Z,21.73
2023-05-13T14:29:39.613Z,21.74
2023-05-13T14:32:09.713Z,21.96
2023-05-13T14:34:44.725Z,22.11
2023-05-13T14:37:16.208Z,22.28
2023-05-13T14:39:50.829Z,22.36
2023-05-13T14:42:20.828Z,22.15
2023-05-13T14:44:50.250Z,22.12
2023-05-13T14:47:20.877Z,22.07
2023-05-13T14:49:50.295Z,22.07
2023-05-13T14:52:21.569Z,22.04
2023-05-13T14:54:51.517Z,21.99
2023-05-13T14:57:21.181Z,21.99
2023-05-13T14:59:55.909Z,22.00
2023-05-13T15:02:26.263Z,22.03
2023-05-13T15:04:55.662Z,22.16
2023-05-13T15:07:27.767Z,22.24
2023-05-13T15:09:57.268Z,22.19
2023-05-13T15:12:29.007Z,22.31
2023-05-13T15:15:00.584Z,22.23
2023-05-13T15:17:31.850Z,22.20
2023-05-13T15:20:01.556Z,22.17
2023-05-13T15:22:38.201Z,22.10
2023-05-13T15:25:12.875Z,22.15
2023-05-13T15:27:42.993Z,22.00
2023-05-13T15:30:14.172Z,21.88
2023-05-13T15:32:43.935Z,21.81
2023-05-13T15:35:18.812Z,21.78
2023-05-13T15:37:50.118Z,21.75
2023-05-13T15:40:19.558Z,21.71
2023-05-13T15:42:50.078Z,21.51
2023-05-13T15:45:19.770Z,21.38
2023-05-13T15:47:49.193Z,21.39
2023-05-13T15:50:18.680Z,21.85
2023-05-13T15:52:55.462Z,21.64
2023-05-13T15:55:30.964Z,21.40
2023-05-13T15:58:00.521Z,21.17
2023-05-13T16:00:29.737Z,20.99
2023-05-13T16:03:09.490Z,20.84
2023-05-13T16:05:38.938Z,20.86
2023-05-13T16:08:10.290Z,20.91
2023-05-13T16:10:39.694Z,20.86
2023-05-13T16:13:09.323Z,20.74
2023-05-13T16:15:38.777Z,20.71
2023-05-13T16:18:08.615Z,20.75
2023-05-13T16:20:38.369Z,20.77
2023-05-13T16:23:20.004Z,20.72
2023-05-13T16:25:51.580Z,20.78
2023-05-13T16:28:20.960Z,20.70
2023-05-13T16:30:51.047Z,20.69
2023-05-13T16:33:28.597Z,20.69
2023-05-13T16:35:57.980Z,20.67
2023-05-13T16:38:27.538Z,20.69
2023-05-13T16:40:59.685Z,20.70
2023-05-13T16:43:29.252Z,20.76
2023-05-13T16:45:58.605Z,20.76
2023-05-13T16:48:28.077Z,20.86
2023-05-13T16:51:04.046Z,20.87
2023-05-13T16:53:34.219Z,20.91
2023-05-13T16:56:10.507Z,20.91
2023-05-13T16:58:44.689Z,20.86
2023-05-13T17:01:14.087Z,20.75
2023-05-13T17:03:43.472Z,20.70
2023-05-13T17:06:19.904Z,20.55
2023-05-13T17:08:49.524Z,20.30
2023-05-13T17:11:21.221Z,20.11
2023-05-13T17:13:50.920Z,19.98
2023-05-13T17:16:20.319Z,19.69
2023-05-13T17:18:49.650Z,19.76
2023-05-13T17:21:19.066Z,19.60
2023-05-13T17:23:53.852Z,19.52
2023-05-13T17:26:41.562Z,19.53
2023-05-13T17:29:11.130Z,19.43
2023-05-13T17:31:41.665Z,19.43
2023-05-13T17:34:11.208Z,19.47
2023-05-13T17:36:40.483Z,19.32
2023-05-13T17:39:10.782Z,19.31
2023-05-13T17:41:47.392Z,19.26
2023-05-13T17:44:17.230Z,19.31
2023-05-13T17:49:27.149Z,19.07
2023-05-13T17:51:56.647Z,19.14
2023-05-13T17:54:25.882Z,19.08
2023-05-13T17:56:57.238Z,19.04
2023-05-13T17:59:26.813Z,18.80
2023-05-13T18:02:01.682Z,18.73
2023-05-13T18:04:31.471Z,18.61
2023-05-13T18:07:00.992Z,18.52
2023-05-13T18:09:30.701Z,18.30
2023-05-13T18:12:02.967Z,18.12
2023-05-13T18:17:08.203Z,18.25
2023-05-13T18:19:37.498Z,18.33
2023-05-13T18:22:09.628Z,18.34
2023-05-13T18:24:39.663Z,18.34
2023-05-13T18:27:11.676Z,18.18
2023-05-13T18:29:41.224Z,17.91
2023-05-13T18:32:10.704Z,18.15
2023-05-13T18:34:45.191Z,18.19
2023-05-13T18:37:14.675Z,18.30
2023-05-13T18:39:49.037Z,18.15
2023-05-13T18:42:20.706Z,18.22
2023-05-13T18:44:50.386Z,18.07
2023-05-13T18:47:19.860Z,18.01
2023-05-13T18:49:49.223Z,18.06
2023-05-13T18:52:18.604Z,17.91
2023-05-13T18:54:48.261Z,18.01
2023-05-13T18:57:20.488Z,17.92
2023-05-13T19:00:01.425Z,17.86
2023-05-13T19:02:40.657Z,17.82
2023-05-13T19:05:11.092Z,17.85
2023-05-13T19:07:40.648Z,17.84
2023-05-13T19:10:15.753Z,17.77
2023-05-13T19:12:52.308Z,17.67
2023-05-13T19:15:23.199Z,17.71
2023-05-13T19:17:53.549Z,17.73
2023-05-13T19:20:23.180Z,17.69
2023-05-13T19:22:52.661Z,17.62
2023-05-13T19:25:22.627Z,17.56
2023-05-13T19:27:54.113Z,17.57
2023-05-13T19:30:24.132Z,17.50
2023-05-13T19:32:53.722Z,17.46
2023-05-13T19:35:23.209Z,17.27
2023-05-13T19:37:52.705Z,17.18
2023-05-13T19:40:26.656Z,17.11
2023-05-13T19:45:38.288Z,16.87
2023-05-13T19:48:08.153Z,16.78
2023-05-13T19:50:37.744Z,16.67
2023-05-13T19:53:07.166Z,16.64
2023-05-13T19:55:41.743Z,16.55
2023-05-13T19:58:15.963Z,16.53
2023-05-13T20:00:46.047Z,16.60
2023-05-13T20:03:15.466Z,16.54
2023-05-13T20:05:44.964Z,16.51
2023-05-13T20:08:14.342Z,16.47
2023-05-13T20:10:49.369Z,16.46
2023-05-13T20:13:26.350Z,16.29
2023-05-13T20:15:55.823Z,16.18
2023-05-13T20:18:25.335Z,16.14
2023-05-13T20:21:00.523Z,16.01
2023-05-13T20:23:30.028Z,16.09
2023-05-13T20:25:59.433Z,16.10
2023-05-13T20:28:30.703Z,16.11
2023-05-13T20:31:00.134Z,16.07
2023-05-13T20:33:34.535Z,16.06
2023-05-13T20:36:05.999Z,16.02
2023-05-13T20:38:42.008Z,16.03
2023-05-13T20:43:54.213Z,16.07
2023-05-13T20:46:23.621Z,15.95
2023-05-13T20:51:29.323Z,15.80
2023-05-13T20:56:45.078Z,15.77
2023-05-13T21:01:51.255Z,15.72
2023-05-13T21:04:20.629Z,15.68
2023-05-13T21:06:50.163Z,15.68
2023-05-13T21:09:19.615Z,15.60
2023-05-13T21:11:53.992Z,15.42
2023-05-13T21:14:34.658Z,15.43
2023-05-13T21:17:04.237Z,15.30
2023-05-13T21:19:33.485Z,15.26
2023-05-13T21:22:10.584Z,15.27
2023-05-13T21:24:45.422Z,15.15
2023-05-13T21:27:21.821Z,15.14
2023-05-13T21:29:53.455Z,14.97
2023-05-13T21:32:27.944Z,15.06
2023-05-13T21:35:02.310Z,14.93
2023-05-13T21:37:34.282Z,14.82
2023-05-13T21:40:03.676Z,14.76
2023-05-13T21:45:12.417Z,14.62
2023-05-13T21:47:41.800Z,14.62
2023-05-13T21:50:12.372Z,14.46
2023-05-13T21:52:41.728Z,14.39
2023-05-13T21:55:11.901Z,14.37
2023-05-13T21:57:46.382Z,14.25
2023-05-13T22:00:21.205Z,14.18
2023-05-13T22:02:57.802Z,14.18
2023-05-13T22:05:27.432Z,14.20
2023-05-13T22:07:56.814Z,14.22
2023-05-13T22:10:26.280Z,14.04
2023-05-13T22:12:55.617Z,13.98
2023-05-13T22:18:09.041Z,13.91
2023-05-13T22:20:38.411Z,13.90
2023-05-13T22:23:08.300Z,13.87
2023-05-13T22:25:37.528Z,13.75
2023-05-13T22:28:07.665Z,13.71
2023-05-13T22:30:51.316Z,13.67
2023-05-13T22:33:25.658Z,13.73
2023-05-13T22:35:55.047Z,13.52
2023-05-13T22:38:25.037Z,13.52
2023-05-13T22:40:54.567Z,13.43
2023-05-13T22:43:23.936Z,13.36
2023-05-13T22:46:00.727Z,13.31
2023-05-13T22:48:30.342Z,13.33
2023-05-13T22:50:59.590Z,13.29
2023-05-13T22:53:28.979Z,13.03
2023-05-13T22:56:09.939Z,13.03
2023-05-13T22:58:44.415Z,12.98
2023-05-13T23:01:17.204Z,12.86
2023-05-13T23:03:46.727Z,12.86
2023-05-13T23:06:16.162Z,12.89
2023-05-13T23:08:45.613Z,12.89
2023-05-13T23:11:14.985Z,12.82
2023-05-13T23:13:49.383Z,12.78
2023-05-13T23:16:21.016Z,12.72
2023-05-13T23:18:50.299Z,12.84
2023-05-13T23:21:19.394Z,12.68
2023-05-13T23:26:33.818Z,12.56
2023-05-13T23:29:03.591Z,12.50
2023-05-13T23:31:35.073Z,12.34
2023-05-13T23:34:04.567Z,12.48
2023-05-13T23:36:33.853Z,12.38
2023-05-13T23:39:03.319Z,12.38
2023-05-13T23:44:14.336Z,12.24
2023-05-13T23:46:50.640Z,12.13
2023-05-13T23:49:20.134Z,12.11
2023-05-13T23:51:49.379Z,12.09
2023-05-13T23:54:23.938Z,12.01
2023-05-13T23:57:10.487Z,12.02
2023-05-13T23:59:39.993Z,11.96
